sensor_id;sensor_type;location;lat;lon;timestamp;P1;durP1;ratioP1;P2;durP2;ratioP2
18338;SDS011;9295;44.484;11.240;2023-03-05T00:01:33;20.67;;;12.27;;
18338;SDS011;9295;44.484;11.240;2023-03-05T00:04:02;26.37;;;12.70;;
18338;SDS011;9295;44.484;11.240;2023-03-05T00:06:32;22.20;;;11.77;;
18338;SDS011;9295;44.484;11.240;2023-03-05T00:09:02;22.70;;;11.77;;
18338;SDS011;9295;44.484;11.240;2023-03-05T00:11:31;21.93;;;10.40;;
18338;SDS011;9295;44.484;11.240;2023-03-05T00:14:01;23.30;;;12.70;;
18338;SDS011;9295;44.484;11.240;2023-03-05T00:16:32;22.33;;;11.30;;
18338;SDS011;9295;44.484;11.240;2023-03-05T00:19:00;27.97;;;12.37;;
18338;SDS011;9295;44.484;11.240;2023-03-05T00:21:29;17.50;;;10.03;;
18338;SDS011;9295;44.484;11.240;2023-03-05T00:23:59;19.60;;;10.73;;
18338;SDS011;9295;44.484;11.240;2023-03-05T00:26:33;26.10;;;11.40;;
18338;SDS011;9295;44.484;11.240;2023-03-05T00:29:05;21.33;;;11.27;;
18338;SDS011;9295;44.484;11.240;2023-03-05T00:31:36;25.67;;;10.87;;
18338;SDS011;9295;44.484;11.240;2023-03-05T00:34:06;20.33;;;10.57;;
18338;SDS011;9295;44.484;11.240;2023-03-05T00:36:37;18.33;;;10.33;;
18338;SDS011;9295;44.484;11.240;2023-03-05T00:39:06;20.40;;;11.00;;
18338;SDS011;9295;44.484;11.240;2023-03-05T00:41:36;23.25;;;11.35;;
18338;SDS011;9295;44.484;11.240;2023-03-05T00:44:05;24.47;;;11.33;;
18338;SDS011;9295;44.484;11.240;2023-03-05T00:46:34;20.70;;;11.57;;
18338;SDS011;9295;44.484;11.240;2023-03-05T00:49:03;21.93;;;10.93;;
18338;SDS011;9295;44.484;11.240;2023-03-05T00:51:32;16.83;;;10.40;;
18338;SDS011;9295;44.484;11.240;2023-03-05T00:54:01;24.63;;;12.10;;
18338;SDS011;9295;44.484;11.240;2023-03-05T00:56:29;27.77;;;11.30;;
18338;SDS011;9295;44.484;11.240;2023-03-05T00:58:59;25.27;;;12.77;;
18338;SDS011;9295;44.484;11.240;2023-03-05T01:01:28;20.63;;;11.13;;
18338;SDS011;9295;44.484;11.240;2023-03-05T01:03:57;26.43;;;13.10;;
18338;SDS011;9295;44.484;11.240;2023-03-05T01:06:27;24.47;;;11.57;;
18338;SDS011;9295;44.484;11.240;2023-03-05T01:08:56;20.43;;;10.90;;
18338;SDS011;9295;44.484;11.240;2023-03-05T01:11:25;19.83;;;11.43;;
18338;SDS011;9295;44.484;11.240;2023-03-05T01:13:53;28.70;;;12.30;;
18338;SDS011;9295;44.484;11.240;2023-03-05T01:16:23;22.60;;;10.00;;
18338;SDS011;9295;44.484;11.240;2023-03-05T01:18:52;20.63;;;11.13;;
18338;SDS011;9295;44.484;11.240;2023-03-05T01:21:20;22.67;;;11.77;;
18338;SDS011;9295;44.484;11.240;2023-03-05T01:23:49;18.00;;;10.83;;
18338;SDS011;9295;44.484;11.240;2023-03-05T01:26:18;22.23;;;11.07;;
18338;SDS011;9295;44.484;11.240;2023-03-05T01:28:46;20.93;;;12.13;;
18338;SDS011;9295;44.484;11.240;2023-03-05T01:31:15;20.53;;;11.13;;
18338;SDS011;9295;44.484;11.240;2023-03-05T01:33:45;20.53;;;10.47;;
18338;SDS011;9295;44.484;11.240;2023-03-05T01:36:14;24.07;;;11.93;;
18338;SDS011;9295;44.484;11.240;2023-03-05T01:38:43;18.47;;;11.40;;
18338;SDS011;9295;44.484;11.240;2023-03-05T01:41:13;17.27;;;11.23;;
18338;SDS011;9295;44.484;11.240;2023-03-05T01:43:48;21.60;;;10.40;;
18338;SDS011;9295;44.484;11.240;2023-03-05T01:46:28;21.73;;;11.57;;
18338;SDS011;9295;44.484;11.240;2023-03-05T01:49:02;25.00;;;11.57;;
18338;SDS011;9295;44.484;11.240;2023-03-05T01:51:41;19.27;;;11.63;;
18338;SDS011;9295;44.484;11.240;2023-03-05T01:54:16;25.20;;;10.60;;
18338;SDS011;9295;44.484;11.240;2023-03-05T01:56:47;21.20;;;11.57;;
18338;SDS011;9295;44.484;11.240;2023-03-05T01:59:18;20.23;;;11.00;;
18338;SDS011;9295;44.484;11.240;2023-03-05T02:01:48;17.60;;;11.10;;
18338;SDS011;9295;44.484;11.240;2023-03-05T02:04:23;25.47;;;11.60;;
18338;SDS011;9295;44.484;11.240;2023-03-05T02:06:57;21.23;;;11.00;;
18338;SDS011;9295;44.484;11.240;2023-03-05T02:09:27;18.17;;;10.50;;
18338;SDS011;9295;44.484;11.240;2023-03-05T02:11:56;24.13;;;11.07;;
18338;SDS011;9295;44.484;11.240;2023-03-05T02:14:25;27.37;;;11.57;;
18338;SDS011;9295;44.484;11.240;2023-03-05T02:16:54;24.40;;;11.87;;
18338;SDS011;9295;44.484;11.240;2023-03-05T02:19:24;20.00;;;11.10;;
18338;SDS011;9295;44.484;11.240;2023-03-05T02:21:54;21.30;;;11.43;;
18338;SDS011;9295;44.484;11.240;2023-03-05T02:24:33;19.57;;;12.23;;
18338;SDS011;9295;44.484;11.240;2023-03-05T02:27:03;23.57;;;12.50;;
18338;SDS011;9295;44.484;11.240;2023-03-05T02:29:32;21.73;;;11.20;;
18338;SDS011;9295;44.484;11.240;2023-03-05T02:32:04;21.43;;;11.77;;
18338;SDS011;9295;44.484;11.240;2023-03-05T02:34:33;23.80;;;12.57;;
18338;SDS011;9295;44.484;11.240;2023-03-05T02:37:03;32.77;;;12.97;;
18338;SDS011;9295;44.484;11.240;2023-03-05T02:39:36;21.60;;;11.00;;
18338;SDS011;9295;44.484;11.240;2023-03-05T02:42:05;21.77;;;12.40;;
18338;SDS011;9295;44.484;11.240;2023-03-05T02:44:35;24.47;;;12.30;;
18338;SDS011;9295;44.484;11.240;2023-03-05T02:47:04;20.63;;;10.93;;
18338;SDS011;9295;44.484;11.240;2023-03-05T02:49:33;19.40;;;12.50;;
18338;SDS011;9295;44.484;11.240;2023-03-05T02:52:04;26.20;;;12.57;;
18338;SDS011;9295;44.484;11.240;2023-03-05T02:54:33;27.00;;;12.23;;
18338;SDS011;9295;44.484;11.240;2023-03-05T02:57:02;22.40;;;11.80;;
18338;SDS011;9295;44.484;11.240;2023-03-05T02:59:31;24.80;;;12.50;;
18338;SDS011;9295;44.484;11.240;2023-03-05T03:01:59;25.50;;;12.37;;
18338;SDS011;9295;44.484;11.240;2023-03-05T03:04:28;26.27;;;11.70;;
18338;SDS011;9295;44.484;11.240;2023-03-05T03:06:57;23.73;;;12.43;;
18338;SDS011;9295;44.484;11.240;2023-03-05T03:09:27;21.03;;;11.77;;
18338;SDS011;9295;44.484;11.240;2023-03-05T03:11:55;23.90;;;12.53;;
18338;SDS011;9295;44.484;11.240;2023-03-05T03:14:24;21.63;;;12.20;;
18338;SDS011;9295;44.484;11.240;2023-03-05T03:16:52;23.83;;;11.73;;
18338;SDS011;9295;44.484;11.240;2023-03-05T03:19:21;36.23;;;12.50;;
18338;SDS011;9295;44.484;11.240;2023-03-05T03:21:50;22.30;;;11.53;;
18338;SDS011;9295;44.484;11.240;2023-03-05T03:24:20;21.97;;;11.80;;
18338;SDS011;9295;44.484;11.240;2023-03-05T03:26:50;20.80;;;11.90;;
18338;SDS011;9295;44.484;11.240;2023-03-05T03:29:19;18.23;;;10.60;;
18338;SDS011;9295;44.484;11.240;2023-03-05T03:31:47;20.57;;;10.73;;
18338;SDS011;9295;44.484;11.240;2023-03-05T03:34:16;23.80;;;12.30;;
18338;SDS011;9295;44.484;11.240;2023-03-05T03:36:45;24.27;;;12.40;;
18338;SDS011;9295;44.484;11.240;2023-03-05T03:39:15;23.20;;;12.77;;
18338;SDS011;9295;44.484;11.240;2023-03-05T03:41:44;18.27;;;11.47;;
18338;SDS011;9295;44.484;11.240;2023-03-05T03:44:16;22.23;;;11.57;;
18338;SDS011;9295;44.484;11.240;2023-03-05T03:46:46;20.70;;;11.77;;
18338;SDS011;9295;44.484;11.240;2023-03-05T03:49:17;19.30;;;11.70;;
18338;SDS011;9295;44.484;11.240;2023-03-05T03:51:47;24.30;;;11.33;;
18338;SDS011;9295;44.484;11.240;2023-03-05T03:54:17;21.00;;;12.20;;
18338;SDS011;9295;44.484;11.240;2023-03-05T03:56:46;23.60;;;12.30;;
18338;SDS011;9295;44.484;11.240;2023-03-05T03:59:16;22.13;;;11.40;;
18338;SDS011;9295;44.484;11.240;2023-03-05T04:01:44;23.23;;;11.83;;
18338;SDS011;9295;44.484;11.240;2023-03-05T04:04:13;26.87;;;12.03;;
18338;SDS011;9295;44.484;11.240;2023-03-05T04:06:42;22.87;;;12.60;;
18338;SDS011;9295;44.484;11.240;2023-03-05T04:09:11;21.77;;;11.07;;
18338;SDS011;9295;44.484;11.240;2023-03-05T04:11:39;20.23;;;12.23;;
18338;SDS011;9295;44.484;11.240;2023-03-05T04:14:08;20.70;;;11.80;;
18338;SDS011;9295;44.484;11.240;2023-03-05T04:16:38;21.00;;;11.27;;
18338;SDS011;9295;44.484;11.240;2023-03-05T04:19:06;20.20;;;11.73;;
18338;SDS011;9295;44.484;11.240;2023-03-05T04:21:35;21.13;;;12.33;;
18338;SDS011;9295;44.484;11.240;2023-03-05T04:24:03;24.47;;;12.40;;
18338;SDS011;9295;44.484;11.240;2023-03-05T04:26:33;23.83;;;11.80;;
18338;SDS011;9295;44.484;11.240;2023-03-05T04:29:02;23.07;;;12.90;;
18338;SDS011;9295;44.484;11.240;2023-03-05T04:31:31;25.03;;;11.70;;
18338;SDS011;9295;44.484;11.240;2023-03-05T04:34:01;24.80;;;11.77;;
18338;SDS011;9295;44.484;11.240;2023-03-05T04:36:29;19.10;;;11.10;;
18338;SDS011;9295;44.484;11.240;2023-03-05T04:38:58;27.63;;;11.60;;
18338;SDS011;9295;44.484;11.240;2023-03-05T04:41:26;24.33;;;11.60;;
18338;SDS011;9295;44.484;11.240;2023-03-05T04:43:55;19.83;;;11.47;;
18338;SDS011;9295;44.484;11.240;2023-03-05T04:46:24;20.07;;;12.53;;
18338;SDS011;9295;44.484;11.240;2023-03-05T04:48:52;20.87;;;11.73;;
18338;SDS011;9295;44.484;11.240;2023-03-05T04:51:23;25.17;;;12.30;;
18338;SDS011;9295;44.484;11.240;2023-03-05T04:53:52;20.40;;;11.90;;
18338;SDS011;9295;44.484;11.240;2023-03-05T04:56:20;21.53;;;12.17;;
18338;SDS011;9295;44.484;11.240;2023-03-05T04:58:49;26.30;;;12.27;;
18338;SDS011;9295;44.484;11.240;2023-03-05T05:01:18;24.13;;;11.73;;
18338;SDS011;9295;44.484;11.240;2023-03-05T05:03:46;23.10;;;12.00;;
18338;SDS011;9295;44.484;11.240;2023-03-05T05:06:15;22.77;;;12.23;;
18338;SDS011;9295;44.484;11.240;2023-03-05T05:08:45;23.53;;;11.23;;
18338;SDS011;9295;44.484;11.240;2023-03-05T05:11:13;25.10;;;12.80;;
18338;SDS011;9295;44.484;11.240;2023-03-05T05:13:42;21.00;;;12.10;;
18338;SDS011;9295;44.484;11.240;2023-03-05T05:16:10;33.63;;;13.30;;
18338;SDS011;9295;44.484;11.240;2023-03-05T05:18:39;18.63;;;11.93;;
18338;SDS011;9295;44.484;11.240;2023-03-05T05:21:08;22.60;;;12.93;;
18338;SDS011;9295;44.484;11.240;2023-03-05T05:23:38;20.13;;;11.17;;
18338;SDS011;9295;44.484;11.240;2023-03-05T05:26:08;24.90;;;12.90;;
18338;SDS011;9295;44.484;11.240;2023-03-05T05:28:40;21.53;;;12.47;;
18338;SDS011;9295;44.484;11.240;2023-03-05T05:31:10;20.97;;;11.60;;
18338;SDS011;9295;44.484;11.240;2023-03-05T05:33:40;28.73;;;11.90;;
18338;SDS011;9295;44.484;11.240;2023-03-05T05:36:10;26.63;;;12.60;;
18338;SDS011;9295;44.484;11.240;2023-03-05T05:38:41;24.43;;;13.17;;
18338;SDS011;9295;44.484;11.240;2023-03-05T05:41:12;21.17;;;12.30;;
18338;SDS011;9295;44.484;11.240;2023-03-05T05:43:42;23.37;;;13.53;;
18338;SDS011;9295;44.484;11.240;2023-03-05T05:46:11;20.63;;;12.10;;
18338;SDS011;9295;44.484;11.240;2023-03-05T05:48:42;24.00;;;11.73;;
18338;SDS011;9295;44.484;11.240;2023-03-05T05:51:12;23.53;;;12.03;;
18338;SDS011;9295;44.484;11.240;2023-03-05T05:53:42;34.93;;;20.47;;
18338;SDS011;9295;44.484;11.240;2023-03-05T05:56:13;24.73;;;13.80;;
18338;SDS011;9295;44.484;11.240;2023-03-05T05:58:43;25.77;;;12.37;;
18338;SDS011;9295;44.484;11.240;2023-03-05T06:01:14;22.73;;;12.10;;
18338;SDS011;9295;44.484;11.240;2023-03-05T06:03:44;18.37;;;11.50;;
18338;SDS011;9295;44.484;11.240;2023-03-05T06:06:14;19.43;;;12.47;;
18338;SDS011;9295;44.484;11.240;2023-03-05T06:08:43;17.20;;;11.07;;
18338;SDS011;9295;44.484;11.240;2023-03-05T06:11:14;23.63;;;13.30;;
18338;SDS011;9295;44.484;11.240;2023-03-05T06:13:45;19.10;;;10.87;;
18338;SDS011;9295;44.484;11.240;2023-03-05T06:16:14;25.97;;;13.10;;
18338;SDS011;9295;44.484;11.240;2023-03-05T06:18:44;20.63;;;12.00;;
18338;SDS011;9295;44.484;11.240;2023-03-05T06:21:14;25.70;;;11.30;;
18338;SDS011;9295;44.484;11.240;2023-03-05T06:23:43;20.90;;;11.10;;
18338;SDS011;9295;44.484;11.240;2023-03-05T06:26:15;21.67;;;12.00;;
18338;SDS011;9295;44.484;11.240;2023-03-05T06:28:44;24.30;;;12.70;;
18338;SDS011;9295;44.484;11.240;2023-03-05T06:31:14;19.70;;;11.63;;
18338;SDS011;9295;44.484;11.240;2023-03-05T06:33:44;22.17;;;11.90;;
18338;SDS011;9295;44.484;11.240;2023-03-05T06:36:13;29.20;;;12.43;;
18338;SDS011;9295;44.484;11.240;2023-03-05T06:38:43;28.20;;;11.50;;
18338;SDS011;9295;44.484;11.240;2023-03-05T06:41:16;18.93;;;11.20;;
18338;SDS011;9295;44.484;11.240;2023-03-05T06:43:47;26.30;;;11.47;;
18338;SDS011;9295;44.484;11.240;2023-03-05T06:46:16;23.37;;;11.20;;
18338;SDS011;9295;44.484;11.240;2023-03-05T06:48:46;20.83;;;11.10;;
18338;SDS011;9295;44.484;11.240;2023-03-05T06:51:16;21.50;;;9.97;;
18338;SDS011;9295;44.484;11.240;2023-03-05T06:53:46;13.13;;;8.40;;
18338;SDS011;9295;44.484;11.240;2023-03-05T06:56:16;11.80;;;7.80;;
18338;SDS011;9295;44.484;11.240;2023-03-05T06:58:46;13.53;;;7.70;;
18338;SDS011;9295;44.484;11.240;2023-03-05T07:01:17;11.63;;;8.17;;
18338;SDS011;9295;44.484;11.240;2023-03-05T07:03:47;14.07;;;9.33;;
18338;SDS011;9295;44.484;11.240;2023-03-05T07:06:17;18.27;;;9.60;;
18338;SDS011;9295;44.484;11.240;2023-03-05T07:08:46;20.20;;;12.00;;
18338;SDS011;9295;44.484;11.240;2023-03-05T07:11:17;22.53;;;12.27;;
18338;SDS011;9295;44.484;11.240;2023-03-05T07:13:47;23.27;;;12.60;;
18338;SDS011;9295;44.484;11.240;2023-03-05T07:16:17;19.20;;;10.77;;
18338;SDS011;9295;44.484;11.240;2023-03-05T07:18:47;17.33;;;9.20;;
18338;SDS011;9295;44.484;11.240;2023-03-05T07:21:16;17.27;;;9.57;;
18338;SDS011;9295;44.484;11.240;2023-03-05T07:23:46;13.97;;;9.03;;
18338;SDS011;9295;44.484;11.240;2023-03-05T07:26:16;17.80;;;8.67;;
18338;SDS011;9295;44.484;11.240;2023-03-05T07:28:45;20.87;;;10.97;;
18338;SDS011;9295;44.484;11.240;2023-03-05T07:31:14;17.97;;;11.23;;
18338;SDS011;9295;44.484;11.240;2023-03-05T07:33:44;16.83;;;8.30;;
18338;SDS011;9295;44.484;11.240;2023-03-05T07:36:13;12.20;;;8.00;;
18338;SDS011;9295;44.484;11.240;2023-03-05T07:38:43;12.97;;;8.23;;
18338;SDS011;9295;44.484;11.240;2023-03-05T07:41:13;19.03;;;8.63;;
18338;SDS011;9295;44.484;11.240;2023-03-05T07:43:47;16.03;;;7.80;;
18338;SDS011;9295;44.484;11.240;2023-03-05T07:46:17;15.50;;;7.47;;
18338;SDS011;9295;44.484;11.240;2023-03-05T07:48:49;15.83;;;8.00;;
18338;SDS011;9295;44.484;11.240;2023-03-05T07:51:18;17.63;;;7.80;;
18338;SDS011;9295;44.484;11.240;2023-03-05T07:53:47;11.47;;;6.43;;
18338;SDS011;9295;44.484;11.240;2023-03-05T07:56:20;10.00;;;6.50;;
18338;SDS011;9295;44.484;11.240;2023-03-05T07:58:51;17.27;;;7.73;;
18338;SDS011;9295;44.484;11.240;2023-03-05T08:01:20;13.20;;;7.07;;
18338;SDS011;9295;44.484;11.240;2023-03-05T08:03:48;14.30;;;7.90;;
18338;SDS011;9295;44.484;11.240;2023-03-05T08:06:17;14.90;;;7.67;;
18338;SDS011;9295;44.484;11.240;2023-03-05T08:08:45;18.00;;;8.70;;
18338;SDS011;9295;44.484;11.240;2023-03-05T08:11:14;18.83;;;7.87;;
18338;SDS011;9295;44.484;11.240;2023-03-05T08:13:43;14.53;;;8.53;;
18338;SDS011;9295;44.484;11.240;2023-03-05T08:16:13;14.20;;;8.13;;
18338;SDS011;9295;44.484;11.240;2023-03-05T08:18:44;12.23;;;7.23;;
18338;SDS011;9295;44.484;11.240;2023-03-05T08:21:16;13.47;;;7.93;;
18338;SDS011;9295;44.484;11.240;2023-03-05T08:23:46;14.57;;;8.70;;
18338;SDS011;9295;44.484;11.240;2023-03-05T08:26:16;12.83;;;7.90;;
18338;SDS011;9295;44.484;11.240;2023-03-05T08:28:46;14.60;;;7.80;;
18338;SDS011;9295;44.484;11.240;2023-03-05T08:31:17;16.67;;;8.40;;
18338;SDS011;9295;44.484;11.240;2023-03-05T08:33:48;14.97;;;8.63;;
18338;SDS011;9295;44.484;11.240;2023-03-05T08:36:17;17.97;;;7.87;;
18338;SDS011;9295;44.484;11.240;2023-03-05T08:38:45;14.23;;;8.27;;
18338;SDS011;9295;44.484;11.240;2023-03-05T08:41:14;13.80;;;7.57;;
18338;SDS011;9295;44.484;11.240;2023-03-05T08:43:44;14.60;;;6.63;;
18338;SDS011;9295;44.484;11.240;2023-03-05T08:46:13;12.00;;;7.07;;
18338;SDS011;9295;44.484;11.240;2023-03-05T08:48:44;17.40;;;8.00;;
18338;SDS011;9295;44.484;11.240;2023-03-05T08:51:13;11.30;;;6.80;;
18338;SDS011;9295;44.484;11.240;2023-03-05T08:53:43;12.03;;;6.57;;
18338;SDS011;9295;44.484;11.240;2023-03-05T08:56:12;13.80;;;6.67;;
18338;SDS011;9295;44.484;11.240;2023-03-05T08:58:41;12.33;;;6.83;;
18338;SDS011;9295;44.484;11.240;2023-03-05T09:01:11;15.40;;;6.20;;
18338;SDS011;9295;44.484;11.240;2023-03-05T09:03:40;14.20;;;6.70;;
18338;SDS011;9295;44.484;11.240;2023-03-05T09:06:10;12.07;;;7.00;;
18338;SDS011;9295;44.484;11.240;2023-03-05T09:08:39;20.33;;;6.40;;
18338;SDS011;9295;44.484;11.240;2023-03-05T09:11:08;13.13;;;7.10;;
18338;SDS011;9295;44.484;11.240;2023-03-05T09:13:39;10.60;;;5.90;;
18338;SDS011;9295;44.484;11.240;2023-03-05T09:16:09;15.43;;;6.30;;
18338;SDS011;9295;44.484;11.240;2023-03-05T09:18:39;16.00;;;6.40;;
18338;SDS011;9295;44.484;11.240;2023-03-05T09:21:10;13.03;;;6.60;;
18338;SDS011;9295;44.484;11.240;2023-03-05T09:23:41;15.27;;;6.73;;
18338;SDS011;9295;44.484;11.240;2023-03-05T09:26:10;13.77;;;6.13;;
18338;SDS011;9295;44.484;11.240;2023-03-05T09:28:41;11.80;;;6.03;;
18338;SDS011;9295;44.484;11.240;2023-03-05T09:31:10;12.10;;;6.03;;
18338;SDS011;9295;44.484;11.240;2023-03-05T09:33:38;11.43;;;5.23;;
18338;SDS011;9295;44.484;11.240;2023-03-05T09:36:17;10.70;;;6.00;;
18338;SDS011;9295;44.484;11.240;2023-03-05T09:38:46;11.67;;;5.43;;
18338;SDS011;9295;44.484;11.240;2023-03-05T09:41:16;13.33;;;5.53;;
18338;SDS011;9295;44.484;11.240;2023-03-05T09:43:54;11.10;;;6.07;;
18338;SDS011;9295;44.484;11.240;2023-03-05T09:46:31;14.03;;;5.70;;
18338;SDS011;9295;44.484;11.240;2023-03-05T09:49:13;12.07;;;5.50;;
18338;SDS011;9295;44.484;11.240;2023-03-05T09:51:47;16.07;;;5.60;;
18338;SDS011;9295;44.484;11.240;2023-03-05T09:54:22;10.83;;;5.80;;
18338;SDS011;9295;44.484;11.240;2023-03-05T09:56:56;13.63;;;5.80;;
18338;SDS011;9295;44.484;11.240;2023-03-05T09:59:31;9.10;;;5.87;;
18338;SDS011;9295;44.484;11.240;2023-03-05T10:02:04;16.53;;;6.67;;
18338;SDS011;9295;44.484;11.240;2023-03-05T10:04:41;10.70;;;6.30;;
18338;SDS011;9295;44.484;11.240;2023-03-05T10:07:16;10.13;;;5.90;;
18338;SDS011;9295;44.484;11.240;2023-03-05T10:09:49;14.67;;;6.77;;
18338;SDS011;9295;44.484;11.240;2023-03-05T10:12:23;11.00;;;6.77;;
18338;SDS011;9295;44.484;11.240;2023-03-05T10:14:58;11.87;;;7.07;;
18338;SDS011;9295;44.484;11.240;2023-03-05T10:17:33;11.90;;;7.13;;
18338;SDS011;9295;44.484;11.240;2023-03-05T10:20:32;12.27;;;5.93;;
18338;SDS011;9295;44.484;11.240;2023-03-05T10:26:19;14.80;;;6.93;;
18338;SDS011;9295;44.484;11.240;2023-03-05T10:28:56;14.03;;;6.80;;
18338;SDS011;9295;44.484;11.240;2023-03-05T10:31:42;21.30;;;7.20;;
18338;SDS011;9295;44.484;11.240;2023-03-05T10:34:29;10.97;;;6.70;;
18338;SDS011;9295;44.484;11.240;2023-03-05T10:37:11;13.93;;;7.60;;
18338;SDS011;9295;44.484;11.240;2023-03-05T10:39:59;10.50;;;7.07;;
18338;SDS011;9295;44.484;11.240;2023-03-05T10:42:39;15.53;;;7.23;;
18338;SDS011;9295;44.484;11.240;2023-03-05T10:45:14;14.07;;;7.27;;
18338;SDS011;9295;44.484;11.240;2023-03-05T10:47:46;16.13;;;7.47;;
18338;SDS011;9295;44.484;11.240;2023-03-05T10:50:19;13.27;;;7.40;;
18338;SDS011;9295;44.484;11.240;2023-03-05T10:52:51;16.80;;;9.07;;
18338;SDS011;9295;44.484;11.240;2023-03-05T10:55:33;12.03;;;8.23;;
18338;SDS011;9295;44.484;11.240;2023-03-05T10:58:06;13.90;;;7.80;;
18338;SDS011;9295;44.484;11.240;2023-03-05T11:00:38;18.47;;;8.60;;
18338;SDS011;9295;44.484;11.240;2023-03-05T11:03:09;13.03;;;8.10;;
18338;SDS011;9295;44.484;11.240;2023-03-05T11:05:42;17.23;;;7.90;;
18338;SDS011;9295;44.484;11.240;2023-03-05T11:08:22;11.27;;;7.90;;
18338;SDS011;9295;44.484;11.240;2023-03-05T11:11:07;16.57;;;8.10;;
18338;SDS011;9295;44.484;11.240;2023-03-05T11:13:42;16.93;;;8.93;;
18338;SDS011;9295;44.484;11.240;2023-03-05T11:16:20;17.30;;;8.57;;
18338;SDS011;9295;44.484;11.240;2023-03-05T11:18:49;14.90;;;7.77;;
18338;SDS011;9295;44.484;11.240;2023-03-05T11:21:44;15.50;;;8.20;;
18338;SDS011;9295;44.484;11.240;2023-03-05T11:24:15;12.50;;;7.10;;
18338;SDS011;9295;44.484;11.240;2023-03-05T11:26:47;15.67;;;7.53;;
18338;SDS011;9295;44.484;11.240;2023-03-05T11:29:19;16.30;;;7.90;;
18338;SDS011;9295;44.484;11.240;2023-03-05T11:31:50;20.43;;;7.50;;
18338;SDS011;9295;44.484;11.240;2023-03-05T11:34:29;17.27;;;8.47;;
18338;SDS011;9295;44.484;11.240;2023-03-05T11:37:02;17.70;;;8.70;;
18338;SDS011;9295;44.484;11.240;2023-03-05T11:39:32;19.63;;;8.07;;
18338;SDS011;9295;44.484;11.240;2023-03-05T11:42:05;16.27;;;7.57;;
18338;SDS011;9295;44.484;11.240;2023-03-05T11:44:43;17.40;;;6.83;;
18338;SDS011;9295;44.484;11.240;2023-03-05T11:47:20;15.10;;;7.43;;
18338;SDS011;9295;44.484;11.240;2023-03-05T11:49:53;13.40;;;7.40;;
18338;SDS011;9295;44.484;11.240;2023-03-05T11:52:29;12.90;;;7.70;;
18338;SDS011;9295;44.484;11.240;2023-03-05T11:55:02;16.47;;;7.07;;
18338;SDS011;9295;44.484;11.240;2023-03-05T11:57:38;14.37;;;7.20;;
18338;SDS011;9295;44.484;11.240;2023-03-05T12:00:12;11.60;;;6.10;;
18338;SDS011;9295;44.484;11.240;2023-03-05T12:02:44;12.60;;;6.07;;
18338;SDS011;9295;44.484;11.240;2023-03-05T12:05:16;10.50;;;5.57;;
18338;SDS011;9295;44.484;11.240;2023-03-05T12:07:45;12.67;;;5.30;;
18338;SDS011;9295;44.484;11.240;2023-03-05T12:10:18;12.90;;;5.67;;
18338;SDS011;9295;44.484;11.240;2023-03-05T12:12:52;14.70;;;5.80;;
18338;SDS011;9295;44.484;11.240;2023-03-05T12:15:28;12.00;;;5.80;;
18338;SDS011;9295;44.484;11.240;2023-03-05T12:18:13;16.83;;;6.10;;
18338;SDS011;9295;44.484;11.240;2023-03-05T12:20:54;12.00;;;5.87;;
18338;SDS011;9295;44.484;11.240;2023-03-05T12:23:31;14.87;;;6.53;;
18338;SDS011;9295;44.484;11.240;2023-03-05T12:26:12;21.90;;;7.13;;
18338;SDS011;9295;44.484;11.240;2023-03-05T12:28:57;14.43;;;6.50;;
18338;SDS011;9295;44.484;11.240;2023-03-05T12:31:28;14.77;;;6.90;;
18338;SDS011;9295;44.484;11.240;2023-03-05T12:40:19;12.73;;;6.37;;
18338;SDS011;9295;44.484;11.240;2023-03-05T12:42:51;14.27;;;6.90;;
18338;SDS011;9295;44.484;11.240;2023-03-05T12:45:24;11.27;;;6.20;;
18338;SDS011;9295;44.484;11.240;2023-03-05T12:51:12;14.80;;;7.33;;
18338;SDS011;9295;44.484;11.240;2023-03-05T12:53:54;12.83;;;6.77;;
18338;SDS011;9295;44.484;11.240;2023-03-05T12:56:24;13.97;;;6.87;;
18338;SDS011;9295;44.484;11.240;2023-03-05T12:58:57;13.70;;;6.83;;
18338;SDS011;9295;44.484;11.240;2023-03-05T13:01:39;17.03;;;8.30;;
18338;SDS011;9295;44.484;11.240;2023-03-05T13:04:13;16.37;;;8.23;;
18338;SDS011;9295;44.484;11.240;2023-03-05T13:06:46;16.10;;;7.90;;
18338;SDS011;9295;44.484;11.240;2023-03-05T13:09:26;16.87;;;9.27;;
18338;SDS011;9295;44.484;11.240;2023-03-05T13:11:57;21.00;;;8.23;;
18338;SDS011;9295;44.484;11.240;2023-03-05T13:14:36;15.23;;;9.07;;
18338;SDS011;9295;44.484;11.240;2023-03-05T13:20:27;15.20;;;8.77;;
18338;SDS011;9295;44.484;11.240;2023-03-05T13:25:40;20.67;;;9.30;;
18338;SDS011;9295;44.484;11.240;2023-03-05T13:28:10;21.20;;;9.33;;
18338;SDS011;9295;44.484;11.240;2023-03-05T13:30:43;19.83;;;9.53;;
18338;SDS011;9295;44.484;11.240;2023-03-05T13:33:21;20.40;;;8.60;;
18338;SDS011;9295;44.484;11.240;2023-03-05T13:35:53;24.13;;;8.90;;
18338;SDS011;9295;44.484;11.240;2023-03-05T13:38:23;17.40;;;8.87;;
18338;SDS011;9295;44.484;11.240;2023-03-05T13:41:00;16.93;;;8.03;;
18338;SDS011;9295;44.484;11.240;2023-03-05T13:43:33;18.83;;;9.00;;
18338;SDS011;9295;44.484;11.240;2023-03-05T13:46:09;16.30;;;8.93;;
18338;SDS011;9295;44.484;11.240;2023-03-05T13:48:39;19.27;;;8.40;;
18338;SDS011;9295;44.484;11.240;2023-03-05T13:51:08;20.63;;;9.37;;
18338;SDS011;9295;44.484;11.240;2023-03-05T13:53:37;19.27;;;8.67;;
18338;SDS011;9295;44.484;11.240;2023-03-05T13:56:07;14.20;;;9.20;;
18338;SDS011;9295;44.484;11.240;2023-03-05T13:58:41;20.20;;;8.27;;
18338;SDS011;9295;44.484;11.240;2023-03-05T14:01:14;17.37;;;8.70;;
18338;SDS011;9295;44.484;11.240;2023-03-05T14:03:56;16.80;;;8.50;;
18338;SDS011;9295;44.484;11.240;2023-03-05T14:06:27;21.53;;;10.00;;
18338;SDS011;9295;44.484;11.240;2023-03-05T14:09:01;23.50;;;9.77;;
18338;SDS011;9295;44.484;11.240;2023-03-05T14:11:32;24.70;;;9.70;;
18338;SDS011;9295;44.484;11.240;2023-03-05T14:14:06;19.70;;;8.80;;
18338;SDS011;9295;44.484;11.240;2023-03-05T14:16:40;16.97;;;8.70;;
18338;SDS011;9295;44.484;11.240;2023-03-05T14:19:25;17.87;;;8.47;;
18338;SDS011;9295;44.484;11.240;2023-03-05T14:22:00;20.03;;;7.13;;
18338;SDS011;9295;44.484;11.240;2023-03-05T14:24:29;15.13;;;7.30;;
18338;SDS011;9295;44.484;11.240;2023-03-05T14:26:58;16.97;;;7.57;;
18338;SDS011;9295;44.484;11.240;2023-03-05T14:29:28;16.50;;;7.70;;
18338;SDS011;9295;44.484;11.240;2023-03-05T14:31:58;18.33;;;8.70;;
18338;SDS011;9295;44.484;11.240;2023-03-05T14:34:31;13.10;;;7.30;;
18338;SDS011;9295;44.484;11.240;2023-03-05T14:37:03;25.33;;;8.50;;
18338;SDS011;9295;44.484;11.240;2023-03-05T14:39:39;18.03;;;7.97;;
18338;SDS011;9295;44.484;11.240;2023-03-05T14:44:58;17.90;;;8.37;;
18338;SDS011;9295;44.484;11.240;2023-03-05T14:47:27;18.40;;;8.20;;
18338;SDS011;9295;44.484;11.240;2023-03-05T14:49:57;13.00;;;7.53;;
18338;SDS011;9295;44.484;11.240;2023-03-05T14:52:26;15.40;;;8.00;;
18338;SDS011;9295;44.484;11.240;2023-03-05T14:54:54;20.43;;;7.93;;
18338;SDS011;9295;44.484;11.240;2023-03-05T14:57:24;18.83;;;7.30;;
18338;SDS011;9295;44.484;11.240;2023-03-05T14:59:54;16.27;;;8.50;;
18338;SDS011;9295;44.484;11.240;2023-03-05T15:02:23;19.50;;;7.47;;
18338;SDS011;9295;44.484;11.240;2023-03-05T15:04:53;16.63;;;8.20;;
18338;SDS011;9295;44.484;11.240;2023-03-05T15:07:24;17.00;;;7.20;;
18338;SDS011;9295;44.484;11.240;2023-03-05T15:09:56;18.70;;;8.20;;
18338;SDS011;9295;44.484;11.240;2023-03-05T15:12:25;20.13;;;7.10;;
18338;SDS011;9295;44.484;11.240;2023-03-05T15:14:54;13.97;;;7.00;;